フランクフルト の空港の天気 - METARとTAF

フランクフルト国際空港 ( EDDF / FRA ) - ドイツ フランクフルト・アム・マイン
飛行場実況気象(Metar)
観測時間02/17 23:50 CET (02/17 22:50 UTC)
風向・風速不定 1m/s
視程10km以上
天気現象
なし
気温1℃
湿度93%
気圧1022hPa
METAREDDF 172250Z VRB02KT CAVOK 01/M00 Q1022 NOSIG
過去の天気等 Google飛行場航空写真 Wunderground天気予報

過去48時間のMETAR

飛行場予報(TAF)
発表時間: 2/17 18:00 CET (2/17 17:00 UTC)
予報対象時間: 17日19時 CET ~ 19日1時 CET
風向・風速不定 2m/s
視程10km以上
なし
18日6時 CET ~ 18日9時 CET に 確率 30% で一時的に
視程1500m
天気現象散在した霧
18日9時 CET ~ 18日11時 CET に徐々に
風向・風速南南西 3m/s
TAF EDDF 171700Z 1718/1824 VRB03KT CAVOK
PROB30 TEMPO 1805/1808 1500 BCFG
BECMG 1808/1810 21005KT